sensor_id;sensor_type;location;lat;lon;timestamp;temperature;humidity
67598;DHT22;62026;39.230;9.122;2023-05-03T00:01:49;17.40;69.10
67598;DHT22;62026;39.230;9.122;2023-05-03T00:04:15;17.40;69.10
67598;DHT22;62026;39.230;9.122;2023-05-03T00:06:43;17.30;69.00
67598;DHT22;62026;39.230;9.122;2023-05-03T00:09:09;17.40;69.10
67598;DHT22;62026;39.230;9.122;2023-05-03T00:11:36;17.40;69.10
67598;DHT22;62026;39.230;9.122;2023-05-03T00:14:02;17.40;69.20
67598;DHT22;62026;39.230;9.122;2023-05-03T00:16:28;17.40;69.10
67598;DHT22;62026;39.230;9.122;2023-05-03T00:18:54;17.30;69.20
67598;DHT22;62026;39.230;9.122;2023-05-03T00:21:21;17.30;69.10
67598;DHT22;62026;39.230;9.122;2023-05-03T00:23:47;17.30;69.20
67598;DHT22;62026;39.230;9.122;2023-05-03T00:26:13;17.30;69.00
67598;DHT22;62026;39.230;9.122;2023-05-03T00:28:39;17.30;69.10
67598;DHT22;62026;39.230;9.122;2023-05-03T00:31:07;17.30;69.00
67598;DHT22;62026;39.230;9.122;2023-05-03T00:33:35;17.30;68.90
67598;DHT22;62026;39.230;9.122;2023-05-03T00:36:13;17.30;69.00
67598;DHT22;62026;39.230;9.122;2023-05-03T00:38:41;17.20;69.00
67598;DHT22;62026;39.230;9.122;2023-05-03T00:41:09;17.20;69.10
67598;DHT22;62026;39.230;9.122;2023-05-03T00:43:35;17.20;69.00
67598;DHT22;62026;39.230;9.122;2023-05-03T00:46:05;17.20;69.20
67598;DHT22;62026;39.230;9.122;2023-05-03T00:48:33;17.20;69.10
67598;DHT22;62026;39.230;9.122;2023-05-03T00:51:02;17.20;69.30
67598;DHT22;62026;39.230;9.122;2023-05-03T00:53:30;17.20;69.30
67598;DHT22;62026;39.230;9.122;2023-05-03T00:55:57;17.20;69.30
67598;DHT22;62026;39.230;9.122;2023-05-03T00:58:25;17.10;69.50
67598;DHT22;62026;39.230;9.122;2023-05-03T01:00:51;17.10;69.50
67598;DHT22;62026;39.230;9.122;2023-05-03T01:03:18;17.10;69.50
67598;DHT22;62026;39.230;9.122;2023-05-03T01:05:57;17.10;69.70
67598;DHT22;62026;39.230;9.122;2023-05-03T01:08:38;17.10;69.70
67598;DHT22;62026;39.230;9.122;2023-05-03T01:11:23;17.10;69.80
67598;DHT22;62026;39.230;9.122;2023-05-03T01:14:22;17.10;69.70
67598;DHT22;62026;39.230;9.122;2023-05-03T01:17:00;17.10;69.70
67598;DHT22;62026;39.230;9.122;2023-05-03T01:19:35;17.10;69.70
67598;DHT22;62026;39.230;9.122;2023-05-03T01:24:50;17.10;69.80
67598;DHT22;62026;39.230;9.122;2023-05-03T01:27:36;17.00;69.90
67598;DHT22;62026;39.230;9.122;2023-05-03T01:30:08;17.00;70.00
67598;DHT22;62026;39.230;9.122;2023-05-03T01:38:02;17.00;69.90
67598;DHT22;62026;39.230;9.122;2023-05-03T01:40:31;17.00;70.00
67598;DHT22;62026;39.230;9.122;2023-05-03T01:43:01;16.90;70.10
67598;DHT22;62026;39.230;9.122;2023-05-03T01:45:28;16.90;70.10
67598;DHT22;62026;39.230;9.122;2023-05-03T01:47:55;16.90;70.10
67598;DHT22;62026;39.230;9.122;2023-05-03T01:50:22;16.90;70.30
67598;DHT22;62026;39.230;9.122;2023-05-03T01:52:49;16.90;70.30
67598;DHT22;62026;39.230;9.122;2023-05-03T01:55:17;16.90;70.20
67598;DHT22;62026;39.230;9.122;2023-05-03T01:57:44;16.90;70.30
67598;DHT22;62026;39.230;9.122;2023-05-03T02:00:10;16.80;70.20
67598;DHT22;62026;39.230;9.122;2023-05-03T02:02:40;16.80;70.40
67598;DHT22;62026;39.230;9.122;2023-05-03T02:05:06;16.90;70.40
67598;DHT22;62026;39.230;9.122;2023-05-03T02:07:32;16.80;70.20
67598;DHT22;62026;39.230;9.122;2023-05-03T02:09:58;16.80;70.00
67598;DHT22;62026;39.230;9.122;2023-05-03T02:12:24;16.80;70.10
67598;DHT22;62026;39.230;9.122;2023-05-03T02:14:50;16.80;70.10
67598;DHT22;62026;39.230;9.122;2023-05-03T02:17:16;16.80;70.10
67598;DHT22;62026;39.230;9.122;2023-05-03T02:19:43;16.70;70.10
67598;DHT22;62026;39.230;9.122;2023-05-03T02:22:09;16.80;70.10
67598;DHT22;62026;39.230;9.122;2023-05-03T02:24:35;16.70;70.10
67598;DHT22;62026;39.230;9.122;2023-05-03T02:27:02;16.70;70.10
67598;DHT22;62026;39.230;9.122;2023-05-03T02:29:29;16.70;70.00
67598;DHT22;62026;39.230;9.122;2023-05-03T02:31:57;16.70;70.00
67598;DHT22;62026;39.230;9.122;2023-05-03T02:34:23;16.70;70.00
67598;DHT22;62026;39.230;9.122;2023-05-03T02:36:50;16.70;70.10
67598;DHT22;62026;39.230;9.122;2023-05-03T02:39:16;16.60;70.00
67598;DHT22;62026;39.230;9.122;2023-05-03T02:41:43;16.60;69.90
67598;DHT22;62026;39.230;9.122;2023-05-03T02:44:09;16.60;70.00
67598;DHT22;62026;39.230;9.122;2023-05-03T02:46:36;16.60;70.00
67598;DHT22;62026;39.230;9.122;2023-05-03T02:49:02;16.60;70.00
67598;DHT22;62026;39.230;9.122;2023-05-03T02:51:28;16.50;70.00
67598;DHT22;62026;39.230;9.122;2023-05-03T02:53:54;16.60;69.90
67598;DHT22;62026;39.230;9.122;2023-05-03T02:56:20;16.60;69.90
67598;DHT22;62026;39.230;9.122;2023-05-03T02:58:46;16.50;69.90
67598;DHT22;62026;39.230;9.122;2023-05-03T03:01:12;16.50;70.00
67598;DHT22;62026;39.230;9.122;2023-05-03T03:03:38;16.50;69.90
67598;DHT22;62026;39.230;9.122;2023-05-03T03:06:05;16.50;69.90
67598;DHT22;62026;39.230;9.122;2023-05-03T03:08:35;16.50;70.00
67598;DHT22;62026;39.230;9.122;2023-05-03T03:11:03;16.50;70.00
67598;DHT22;62026;39.230;9.122;2023-05-03T03:13:31;16.50;69.90
67598;DHT22;62026;39.230;9.122;2023-05-03T03:15:58;16.50;70.10
67598;DHT22;62026;39.230;9.122;2023-05-03T03:18:24;16.50;70.00
67598;DHT22;62026;39.230;9.122;2023-05-03T03:20:50;16.50;70.00
67598;DHT22;62026;39.230;9.122;2023-05-03T03:23:17;16.50;70.10
67598;DHT22;62026;39.230;9.122;2023-05-03T03:25:43;16.50;70.00
67598;DHT22;62026;39.230;9.122;2023-05-03T03:28:09;16.50;70.20
67598;DHT22;62026;39.230;9.122;2023-05-03T03:30:36;16.50;70.10
67598;DHT22;62026;39.230;9.122;2023-05-03T03:33:15;16.50;70.20
67598;DHT22;62026;39.230;9.122;2023-05-03T03:35:41;16.50;70.10
67598;DHT22;62026;39.230;9.122;2023-05-03T03:38:08;16.40;70.00
67598;DHT22;62026;39.230;9.122;2023-05-03T03:40:39;16.50;69.90
67598;DHT22;62026;39.230;9.122;2023-05-03T03:43:05;16.40;69.90
67598;DHT22;62026;39.230;9.122;2023-05-03T03:45:31;16.40;70.00
67598;DHT22;62026;39.230;9.122;2023-05-03T03:47:58;16.40;70.10
67598;DHT22;62026;39.230;9.122;2023-05-03T03:50:25;16.40;70.00
67598;DHT22;62026;39.230;9.122;2023-05-03T03:52:52;16.40;69.90
67598;DHT22;62026;39.230;9.122;2023-05-03T03:55:18;16.40;69.90
67598;DHT22;62026;39.230;9.122;2023-05-03T03:57:47;16.40;70.00
67598;DHT22;62026;39.230;9.122;2023-05-03T04:00:13;16.30;69.90
67598;DHT22;62026;39.230;9.122;2023-05-03T04:02:44;16.30;70.00
67598;DHT22;62026;39.230;9.122;2023-05-03T04:05:15;16.30;70.00
67598;DHT22;62026;39.230;9.122;2023-05-03T04:07:43;16.30;70.00
67598;DHT22;62026;39.230;9.122;2023-05-03T04:10:10;16.30;70.10
67598;DHT22;62026;39.230;9.122;2023-05-03T04:12:38;16.30;70.10
67598;DHT22;62026;39.230;9.122;2023-05-03T04:15:05;16.30;70.10
67598;DHT22;62026;39.230;9.122;2023-05-03T04:17:33;16.30;70.10
67598;DHT22;62026;39.230;9.122;2023-05-03T04:20:02;16.30;70.20
67598;DHT22;62026;39.230;9.122;2023-05-03T04:22:32;16.30;70.20
67598;DHT22;62026;39.230;9.122;2023-05-03T04:24:58;16.30;70.30
67598;DHT22;62026;39.230;9.122;2023-05-03T04:27:29;16.30;70.20
67598;DHT22;62026;39.230;9.122;2023-05-03T04:29:55;16.30;70.30
67598;DHT22;62026;39.230;9.122;2023-05-03T04:32:22;16.30;70.30
67598;DHT22;62026;39.230;9.122;2023-05-03T04:34:51;16.30;70.40
67598;DHT22;62026;39.230;9.122;2023-05-03T04:37:23;16.30;70.30
67598;DHT22;62026;39.230;9.122;2023-05-03T04:39:49;16.30;70.30
67598;DHT22;62026;39.230;9.122;2023-05-03T04:42:16;16.30;70.40
67598;DHT22;62026;39.230;9.122;2023-05-03T04:44:43;16.30;70.50
67598;DHT22;62026;39.230;9.122;2023-05-03T04:47:10;16.30;70.50
67598;DHT22;62026;39.230;9.122;2023-05-03T04:49:36;16.30;70.40
67598;DHT22;62026;39.230;9.122;2023-05-03T04:52:04;16.30;70.50
67598;DHT22;62026;39.230;9.122;2023-05-03T04:54:31;16.30;70.60
67598;DHT22;62026;39.230;9.122;2023-05-03T04:56:57;16.30;70.60
67598;DHT22;62026;39.230;9.122;2023-05-03T04:59:24;16.30;70.60
67598;DHT22;62026;39.230;9.122;2023-05-03T05:01:50;16.30;70.80
67598;DHT22;62026;39.230;9.122;2023-05-03T05:04:16;16.30;70.80
67598;DHT22;62026;39.230;9.122;2023-05-03T05:06:47;16.40;70.60
67598;DHT22;62026;39.230;9.122;2023-05-03T05:09:26;16.40;70.60
67598;DHT22;62026;39.230;9.122;2023-05-03T05:11:56;16.40;70.60
67598;DHT22;62026;39.230;9.122;2023-05-03T05:14:25;16.40;70.70
67598;DHT22;62026;39.230;9.122;2023-05-03T05:16:53;16.40;70.70
67598;DHT22;62026;39.230;9.122;2023-05-03T05:19:19;16.40;70.70
67598;DHT22;62026;39.230;9.122;2023-05-03T05:21:45;16.50;70.60
67598;DHT22;62026;39.230;9.122;2023-05-03T05:24:13;16.50;70.60
67598;DHT22;62026;39.230;9.122;2023-05-03T05:26:41;16.50;70.60
67598;DHT22;62026;39.230;9.122;2023-05-03T05:29:09;16.60;70.50
67598;DHT22;62026;39.230;9.122;2023-05-03T05:31:35;16.60;70.20
67598;DHT22;62026;39.230;9.122;2023-05-03T05:34:04;16.70;70.10
67598;DHT22;62026;39.230;9.122;2023-05-03T05:36:30;16.80;69.80
67598;DHT22;62026;39.230;9.122;2023-05-03T05:38:57;16.90;69.70
67598;DHT22;62026;39.230;9.122;2023-05-03T05:41:23;17.00;69.50
67598;DHT22;62026;39.230;9.122;2023-05-03T05:43:50;17.10;69.30
67598;DHT22;62026;39.230;9.122;2023-05-03T05:46:16;17.20;69.20
67598;DHT22;62026;39.230;9.122;2023-05-03T05:48:44;17.30;69.00
67598;DHT22;62026;39.230;9.122;2023-05-03T05:51:10;17.40;68.80
67598;DHT22;62026;39.230;9.122;2023-05-03T05:53:36;17.50;68.70
67598;DHT22;62026;39.230;9.122;2023-05-03T05:56:02;17.50;68.60
67598;DHT22;62026;39.230;9.122;2023-05-03T05:58:32;17.50;68.80
67598;DHT22;62026;39.230;9.122;2023-05-03T06:00:59;17.60;68.80
67598;DHT22;62026;39.230;9.122;2023-05-03T06:03:28;17.70;68.80
67598;DHT22;62026;39.230;9.122;2023-05-03T06:05:54;17.90;68.20
67598;DHT22;62026;39.230;9.122;2023-05-03T06:08:20;18.00;67.90
67598;DHT22;62026;39.230;9.122;2023-05-03T06:10:47;18.20;67.50
67598;DHT22;62026;39.230;9.122;2023-05-03T06:13:13;18.40;67.40
67598;DHT22;62026;39.230;9.122;2023-05-03T06:15:40;18.50;66.80
67598;DHT22;62026;39.230;9.122;2023-05-03T06:18:06;18.70;66.40
67598;DHT22;62026;39.230;9.122;2023-05-03T06:20:32;18.80;66.00
67598;DHT22;62026;39.230;9.122;2023-05-03T06:22:59;18.80;65.80
67598;DHT22;62026;39.230;9.122;2023-05-03T06:25:25;18.80;65.70
67598;DHT22;62026;39.230;9.122;2023-05-03T06:27:51;18.80;65.80
67598;DHT22;62026;39.230;9.122;2023-05-03T06:30:21;18.90;65.70
67598;DHT22;62026;39.230;9.122;2023-05-03T06:32:49;19.00;65.60
67598;DHT22;62026;39.230;9.122;2023-05-03T06:35:16;19.10;65.30
67598;DHT22;62026;39.230;9.122;2023-05-03T06:37:44;19.20;65.20
67598;DHT22;62026;39.230;9.122;2023-05-03T06:40:10;19.30;64.90
67598;DHT22;62026;39.230;9.122;2023-05-03T06:42:36;19.40;64.60
67598;DHT22;62026;39.230;9.122;2023-05-03T06:45:12;19.50;64.30
67598;DHT22;62026;39.230;9.122;2023-05-03T06:47:38;19.50;64.30
67598;DHT22;62026;39.230;9.122;2023-05-03T06:50:07;19.60;64.20
67598;DHT22;62026;39.230;9.122;2023-05-03T06:52:34;19.60;64.10
67598;DHT22;62026;39.230;9.122;2023-05-03T06:55:00;19.90;63.90
67598;DHT22;62026;39.230;9.122;2023-05-03T06:57:26;20.10;63.30
67598;DHT22;62026;39.230;9.122;2023-05-03T06:59:52;20.20;62.90
67598;DHT22;62026;39.230;9.122;2023-05-03T07:02:18;20.30;62.70
67598;DHT22;62026;39.230;9.122;2023-05-03T07:04:44;20.50;62.30
67598;DHT22;62026;39.230;9.122;2023-05-03T07:07:10;20.50;62.00
67598;DHT22;62026;39.230;9.122;2023-05-03T07:09:36;20.60;61.90
67598;DHT22;62026;39.230;9.122;2023-05-03T07:12:02;20.70;61.40
67598;DHT22;62026;39.230;9.122;2023-05-03T07:14:28;20.70;61.20
67598;DHT22;62026;39.230;9.122;2023-05-03T07:16:56;20.80;61.10
67598;DHT22;62026;39.230;9.122;2023-05-03T07:19:22;20.80;60.80
67598;DHT22;62026;39.230;9.122;2023-05-03T07:21:47;20.90;60.60
67598;DHT22;62026;39.230;9.122;2023-05-03T07:24:14;21.00;60.50
67598;DHT22;62026;39.230;9.122;2023-05-03T07:26:40;21.00;60.30
67598;DHT22;62026;39.230;9.122;2023-05-03T07:29:06;21.10;59.70
67598;DHT22;62026;39.230;9.122;2023-05-03T07:31:32;21.30;59.50
67598;DHT22;62026;39.230;9.122;2023-05-03T07:33:58;21.40;59.30
67598;DHT22;62026;39.230;9.122;2023-05-03T07:36:24;21.60;58.90
67598;DHT22;62026;39.230;9.122;2023-05-03T07:38:50;21.70;58.40
67598;DHT22;62026;39.230;9.122;2023-05-03T07:41:16;21.80;58.40
67598;DHT22;62026;39.230;9.122;2023-05-03T07:43:43;21.80;58.50
67598;DHT22;62026;39.230;9.122;2023-05-03T07:46:09;21.90;58.00
67598;DHT22;62026;39.230;9.122;2023-05-03T07:48:35;22.00;58.00
67598;DHT22;62026;39.230;9.122;2023-05-03T07:51:03;22.10;57.60
67598;DHT22;62026;39.230;9.122;2023-05-03T07:53:29;22.30;57.00
67598;DHT22;62026;39.230;9.122;2023-05-03T07:55:56;22.30;56.90
67598;DHT22;62026;39.230;9.122;2023-05-03T07:58:22;22.40;57.00
67598;DHT22;62026;39.230;9.122;2023-05-03T08:00:48;22.50;56.60
67598;DHT22;62026;39.230;9.122;2023-05-03T08:03:14;22.60;56.20
67598;DHT22;62026;39.230;9.122;2023-05-03T08:05:40;22.70;55.90
67598;DHT22;62026;39.230;9.122;2023-05-03T08:08:06;22.70;56.00
67598;DHT22;62026;39.230;9.122;2023-05-03T08:10:32;22.80;56.00
67598;DHT22;62026;39.230;9.122;2023-05-03T08:13:03;22.90;55.40
67598;DHT22;62026;39.230;9.122;2023-05-03T08:15:31;23.00;55.30
67598;DHT22;62026;39.230;9.122;2023-05-03T08:17:57;23.00;55.00
67598;DHT22;62026;39.230;9.122;2023-05-03T08:20:23;23.10;55.00
67598;DHT22;62026;39.230;9.122;2023-05-03T08:22:52;23.20;55.00
67598;DHT22;62026;39.230;9.122;2023-05-03T08:25:24;23.20;55.10
67598;DHT22;62026;39.230;9.122;2023-05-03T08:27:51;23.30;55.00
67598;DHT22;62026;39.230;9.122;2023-05-03T08:30:18;23.50;54.40
67598;DHT22;62026;39.230;9.122;2023-05-03T08:32:51;23.50;54.10
67598;DHT22;62026;39.230;9.122;2023-05-03T08:35:26;23.50;54.10
67598;DHT22;62026;39.230;9.122;2023-05-03T08:37:52;23.60;54.10
67598;DHT22;62026;39.230;9.122;2023-05-03T08:40:22;23.70;53.70
67598;DHT22;62026;39.230;9.122;2023-05-03T08:42:48;23.90;53.00
67598;DHT22;62026;39.230;9.122;2023-05-03T08:45:15;23.90;52.90
67598;DHT22;62026;39.230;9.122;2023-05-03T08:47:43;24.00;54.10
67598;DHT22;62026;39.230;9.122;2023-05-03T08:50:13;24.10;54.00
67598;DHT22;62026;39.230;9.122;2023-05-03T08:52:41;24.00;54.10
67598;DHT22;62026;39.230;9.122;2023-05-03T08:55:08;23.90;53.20
67598;DHT22;62026;39.230;9.122;2023-05-03T08:57:36;23.80;52.90
67598;DHT22;62026;39.230;9.122;2023-05-03T09:00:03;23.80;52.20
67598;DHT22;62026;39.230;9.122;2023-05-03T09:02:37;23.90;51.50
67598;DHT22;62026;39.230;9.122;2023-05-03T09:05:30;24.00;51.60
67598;DHT22;62026;39.230;9.122;2023-05-03T09:08:09;24.00;52.00
67598;DHT22;62026;39.230;9.122;2023-05-03T09:10:39;24.10;51.70
67598;DHT22;62026;39.230;9.122;2023-05-03T09:13:07;24.20;50.90
67598;DHT22;62026;39.230;9.122;2023-05-03T09:15:34;24.40;50.20
67598;DHT22;62026;39.230;9.122;2023-05-03T09:20:38;24.60;50.00
67598;DHT22;62026;39.230;9.122;2023-05-03T09:23:07;24.50;50.00
67598;DHT22;62026;39.230;9.122;2023-05-03T09:25:45;24.60;49.90
67598;DHT22;62026;39.230;9.122;2023-05-03T09:28:14;24.60;49.20
67598;DHT22;62026;39.230;9.122;2023-05-03T09:30:41;24.60;49.10
67598;DHT22;62026;39.230;9.122;2023-05-03T09:33:08;24.40;48.60
67598;DHT22;62026;39.230;9.122;2023-05-03T09:35:35;24.40;48.70
67598;DHT22;62026;39.230;9.122;2023-05-03T09:38:01;24.60;48.40
67598;DHT22;62026;39.230;9.122;2023-05-03T09:40:27;24.60;48.00
67598;DHT22;62026;39.230;9.122;2023-05-03T09:43:07;24.70;48.00
67598;DHT22;62026;39.230;9.122;2023-05-03T09:45:36;24.90;48.00
67598;DHT22;62026;39.230;9.122;2023-05-03T09:48:04;24.90;47.50
67598;DHT22;62026;39.230;9.122;2023-05-03T09:50:35;24.90;47.00
67598;DHT22;62026;39.230;9.122;2023-05-03T09:53:04;25.00;46.40
67598;DHT22;62026;39.230;9.122;2023-05-03T09:58:02;25.10;46.50
67598;DHT22;62026;39.230;9.122;2023-05-03T10:00:39;25.10;46.10
67598;DHT22;62026;39.230;9.122;2023-05-03T10:03:08;25.20;46.40
67598;DHT22;62026;39.230;9.122;2023-05-03T10:05:46;25.20;45.70
67598;DHT22;62026;39.230;9.122;2023-05-03T10:11:03;25.10;45.40
67598;DHT22;62026;39.230;9.122;2023-05-03T10:13:33;25.00;45.50
67598;DHT22;62026;39.230;9.122;2023-05-03T10:16:11;25.00;46.00
67598;DHT22;62026;39.230;9.122;2023-05-03T10:18:50;24.90;45.60
67598;DHT22;62026;39.230;9.122;2023-05-03T10:22:08;24.80;45.50
67598;DHT22;62026;39.230;9.122;2023-05-03T10:24:36;24.80;45.50
67598;DHT22;62026;39.230;9.122;2023-05-03T10:27:35;24.70;45.90
67598;DHT22;62026;39.230;9.122;2023-05-03T10:32:56;24.80;45.90
67598;DHT22;62026;39.230;9.122;2023-05-03T10:35:25;24.70;45.60
67598;DHT22;62026;39.230;9.122;2023-05-03T10:37:52;24.50;46.10
67598;DHT22;62026;39.230;9.122;2023-05-03T10:40:21;24.50;46.50
67598;DHT22;62026;39.230;9.122;2023-05-03T10:42:53;24.40;45.80
67598;DHT22;62026;39.230;9.122;2023-05-03T10:45:22;24.30;46.00
67598;DHT22;62026;39.230;9.122;2023-05-03T10:50:38;24.30;45.80
67598;DHT22;62026;39.230;9.122;2023-05-03T10:53:05;24.20;46.10
67598;DHT22;62026;39.230;9.122;2023-05-03T10:55:32;24.10;46.30
67598;DHT22;62026;39.230;9.122;2023-05-03T10:57:59;24.20;46.00
67598;DHT22;62026;39.230;9.122;2023-05-03T11:05:51;24.10;45.70
67598;DHT22;62026;39.230;9.122;2023-05-03T11:08:19;23.60;52.80
67598;DHT22;62026;39.230;9.122;2023-05-03T11:10:47;22.80;56.30
67598;DHT22;62026;39.230;9.122;2023-05-03T11:13:15;22.10;58.40
67598;DHT22;62026;39.230;9.122;2023-05-03T11:15:42;21.70;58.80
67598;DHT22;62026;39.230;9.122;2023-05-03T11:18:09;21.60;59.40
67598;DHT22;62026;39.230;9.122;2023-05-03T11:20:38;21.30;60.40
67598;DHT22;62026;39.230;9.122;2023-05-03T11:23:05;21.10;60.80
67598;DHT22;62026;39.230;9.122;2023-05-03T11:25:32;21.00;60.50
67598;DHT22;62026;39.230;9.122;2023-05-03T11:27:59;21.00;60.50
67598;DHT22;62026;39.230;9.122;2023-05-03T11:30:27;21.20;60.10
67598;DHT22;62026;39.230;9.122;2023-05-03T11:32:54;21.20;59.90
67598;DHT22;62026;39.230;9.122;2023-05-03T11:35:21;21.40;59.60
67598;DHT22;62026;39.230;9.122;2023-05-03T11:37:52;21.40;59.90
67598;DHT22;62026;39.230;9.122;2023-05-03T11:40:19;21.30;59.40
67598;DHT22;62026;39.230;9.122;2023-05-03T11:42:54;21.40;59.80
67598;DHT22;62026;39.230;9.122;2023-05-03T11:45:26;21.40;59.60
67598;DHT22;62026;39.230;9.122;2023-05-03T11:47:56;21.40;59.80
67598;DHT22;62026;39.230;9.122;2023-05-03T11:50:48;21.30;60.30
67598;DHT22;62026;39.230;9.122;2023-05-03T11:53:17;21.20;60.60
67598;DHT22;62026;39.230;9.122;2023-05-03T11:55:45;21.30;60.60
67598;DHT22;62026;39.230;9.122;2023-05-03T11:58:23;21.10;60.80
67598;DHT22;62026;39.230;9.122;2023-05-03T12:00:55;21.00;60.70
67598;DHT22;62026;39.230;9.122;2023-05-03T12:03:29;21.00;60.70
67598;DHT22;62026;39.230;9.122;2023-05-03T12:06:00;20.90;60.00
67598;DHT22;62026;39.230;9.122;2023-05-03T12:08:31;20.80;59.00
67598;DHT22;62026;39.230;9.122;2023-05-03T12:10:59;20.90;57.80
67598;DHT22;62026;39.230;9.122;2023-05-03T12:13:27;21.20;57.20
67598;DHT22;62026;39.230;9.122;2023-05-03T12:15:57;21.10;57.10
67598;DHT22;62026;39.230;9.122;2023-05-03T12:18:25;20.90;56.50
67598;DHT22;62026;39.230;9.122;2023-05-03T12:20:56;21.10;56.70
67598;DHT22;62026;39.230;9.122;2023-05-03T12:23:24;21.20;56.20
67598;DHT22;62026;39.230;9.122;2023-05-03T12:25:51;21.20;55.90
67598;DHT22;62026;39.230;9.122;2023-05-03T12:28:17;21.20;55.70
67598;DHT22;62026;39.230;9.122;2023-05-03T12:30:43;21.10;54.80
67598;DHT22;62026;39.230;9.122;2023-05-03T12:33:09;21.00;54.00
67598;DHT22;62026;39.230;9.122;2023-05-03T12:35:36;21.00;54.40
67598;DHT22;62026;39.230;9.122;2023-05-03T12:38:02;20.90;54.10
67598;DHT22;62026;39.230;9.122;2023-05-03T12:40:28;20.80;54.20
67598;DHT22;62026;39.230;9.122;2023-05-03T12:42:54;20.80;54.70
67598;DHT22;62026;39.230;9.122;2023-05-03T12:45:21;20.90;54.30
67598;DHT22;62026;39.230;9.122;2023-05-03T12:47:47;20.90;53.70
67598;DHT22;62026;39.230;9.122;2023-05-03T12:50:13;20.90;53.90
67598;DHT22;62026;39.230;9.122;2023-05-03T12:52:39;20.80;54.00
67598;DHT22;62026;39.230;9.122;2023-05-03T12:55:06;20.80;53.20
67598;DHT22;62026;39.230;9.122;2023-05-03T12:57:32;20.80;53.10
67598;DHT22;62026;39.230;9.122;2023-05-03T12:59:58;20.70;53.70
67598;DHT22;62026;39.230;9.122;2023-05-03T13:02:24;20.70;53.70
67598;DHT22;62026;39.230;9.122;2023-05-03T13:04:50;20.60;53.80
67598;DHT22;62026;39.230;9.122;2023-05-03T13:07:24;20.80;54.20
67598;DHT22;62026;39.230;9.122;2023-05-03T13:09:56;20.90;53.90
67598;DHT22;62026;39.230;9.122;2023-05-03T13:12:23;20.90;53.60
67598;DHT22;62026;39.230;9.122;2023-05-03T13:14:51;20.90;53.30
67598;DHT22;62026;39.230;9.122;2023-05-03T13:17:19;21.00;53.60
67598;DHT22;62026;39.230;9.122;2023-05-03T13:19:47;21.00;54.90
67598;DHT22;62026;39.230;9.122;2023-05-03T13:22:14;21.00;54.10
67598;DHT22;62026;39.230;9.122;2023-05-03T13:24:45;21.00;54.80
67598;DHT22;62026;39.230;9.122;2023-05-03T13:27:12;21.00;53.60
67598;DHT22;62026;39.230;9.122;2023-05-03T13:29:39;21.10;53.90
67598;DHT22;62026;39.230;9.122;2023-05-03T13:32:05;21.20;53.70
67598;DHT22;62026;39.230;9.122;2023-05-03T13:34:33;21.10;53.90
67598;DHT22;62026;39.230;9.122;2023-05-03T13:37:00;21.00;54.80
67598;DHT22;62026;39.230;9.122;2023-05-03T13:39:26;20.90;53.90
67598;DHT22;62026;39.230;9.122;2023-05-03T13:41:52;20.90;54.30
67598;DHT22;62026;39.230;9.122;2023-05-03T13:44:19;20.80;54.00
67598;DHT22;62026;39.230;9.122;2023-05-03T13:46:45;20.80;54.60
67598;DHT22;62026;39.230;9.122;2023-05-03T13:49:11;20.80;53.80
67598;DHT22;62026;39.230;9.122;2023-05-03T13:51:38;20.90;54.70
67598;DHT22;62026;39.230;9.122;2023-05-03T13:54:05;20.80;55.50
67598;DHT22;62026;39.230;9.122;2023-05-03T13:56:32;20.70;55.70
67598;DHT22;62026;39.230;9.122;2023-05-03T13:58:59;20.60;54.80
67598;DHT22;62026;39.230;9.122;2023-05-03T14:01:27;20.50;54.80
67598;DHT22;62026;39.230;9.122;2023-05-03T14:03:54;20.50;54.80
67598;DHT22;62026;39.230;9.122;2023-05-03T14:06:21;20.50;55.70
67598;DHT22;62026;39.230;9.122;2023-05-03T14:08:51;20.60;55.30
67598;DHT22;62026;39.230;9.122;2023-05-03T14:11:21;20.50;55.00
67598;DHT22;62026;39.230;9.122;2023-05-03T14:13:49;20.40;55.10
67598;DHT22;62026;39.230;9.122;2023-05-03T14:16:20;20.40;55.80
67598;DHT22;62026;39.230;9.122;2023-05-03T14:18:48;20.40;55.20
67598;DHT22;62026;39.230;9.122;2023-05-03T14:21:16;20.30;56.20
67598;DHT22;62026;39.230;9.122;2023-05-03T14:23:45;20.30;56.30
67598;DHT22;62026;39.230;9.122;2023-05-03T14:26:13;20.20;57.10
67598;DHT22;62026;39.230;9.122;2023-05-03T14:28:39;20.20;56.80
67598;DHT22;62026;39.230;9.122;2023-05-03T14:31:05;20.20;56.20
67598;DHT22;62026;39.230;9.122;2023-05-03T14:33:32;20.10;57.20
67598;DHT22;62026;39.230;9.122;2023-05-03T14:35:59;20.10;57.20
67598;DHT22;62026;39.230;9.122;2023-05-03T14:38:25;20.00;57.50
67598;DHT22;62026;39.230;9.122;2023-05-03T14:40:51;20.10;57.30
67598;DHT22;62026;39.230;9.122;2023-05-03T14:43:18;20.10;58.40
67598;DHT22;62026;39.230;9.122;2023-05-03T14:45:45;20.20;58.20
67598;DHT22;62026;39.230;9.122;2023-05-03T14:48:13;20.20;57.30
67598;DHT22;62026;39.230;9.122;2023-05-03T14:50:40;20.00;58.10
67598;DHT22;62026;39.230;9.122;2023-05-03T14:53:06;19.90;59.00
67598;DHT22;62026;39.230;9.122;2023-05-03T14:55:32;20.00;59.70
67598;DHT22;62026;39.230;9.122;2023-05-03T14:57:59;20.10;60.20
67598;DHT22;62026;39.230;9.122;2023-05-03T15:00:25;19.90;59.90
67598;DHT22;62026;39.230;9.122;2023-05-03T15:02:51;19.80;60.40
67598;DHT22;62026;39.230;9.122;2023-05-03T15:05:21;19.80;61.30
67598;DHT22;62026;39.230;9.122;2023-05-03T15:07:47;19.80;62.10
67598;DHT22;62026;39.230;9.122;2023-05-03T15:10:13;19.80;62.60
67598;DHT22;62026;39.230;9.122;2023-05-03T15:12:39;19.70;62.50
67598;DHT22;62026;39.230;9.122;2023-05-03T15:15:07;19.70;61.90
67598;DHT22;62026;39.230;9.122;2023-05-03T15:17:34;19.80;62.10
67598;DHT22;62026;39.230;9.122;2023-05-03T15:20:01;19.90;61.40
67598;DHT22;62026;39.230;9.122;2023-05-03T15:22:29;19.90;61.20
67598;DHT22;62026;39.230;9.122;2023-05-03T15:24:55;19.90;60.60
67598;DHT22;62026;39.230;9.122;2023-05-03T15:27:21;19.90;61.00
67598;DHT22;62026;39.230;9.122;2023-05-03T15:29:47;19.90;60.90
67598;DHT22;62026;39.230;9.122;2023-05-03T15:32:13;19.90;61.20
67598;DHT22;62026;39.230;9.122;2023-05-03T15:34:39;19.90;61.50
67598;DHT22;62026;39.230;9.122;2023-05-03T15:37:05;19.90;62.00
67598;DHT22;62026;39.230;9.122;2023-05-03T15:39:31;20.00;62.20
67598;DHT22;62026;39.230;9.122;2023-05-03T15:41:57;20.00;62.50
67598;DHT22;62026;39.230;9.122;2023-05-03T15:44:23;20.00;61.90
67598;DHT22;62026;39.230;9.122;2023-05-03T15:46:49;19.90;62.20
67598;DHT22;62026;39.230;9.122;2023-05-03T15:49:15;20.00;62.70
67598;DHT22;62026;39.230;9.122;2023-05-03T15:51:41;19.90;63.20
67598;DHT22;62026;39.230;9.122;2023-05-03T15:54:07;19.80;63.10
67598;DHT22;62026;39.230;9.122;2023-05-03T15:56:33;19.80;63.30
67598;DHT22;62026;39.230;9.122;2023-05-03T15:59:02;19.90;63.50
67598;DHT22;62026;39.230;9.122;2023-05-03T16:01:28;19.80;63.20
67598;DHT22;62026;39.230;9.122;2023-05-03T16:03:54;19.80;64.00